sensor_id;sensor_type;location;lat;lon;timestamp;pressure;altitude;pressure_sealevel;temperature;humidity
60611;BME280;46439;51.164;13.572;2023-07-13T00:02:26;99678.17;;;24.97;100.00
60611;BME280;46439;51.164;13.572;2023-07-13T00:04:55;99677.13;;;24.94;100.00
60611;BME280;46439;51.164;13.572;2023-07-13T00:07:23;99691.21;;;24.94;100.00
60611;BME280;46439;51.164;13.572;2023-07-13T00:09:52;99697.85;;;24.90;100.00
60611;BME280;46439;51.164;13.572;2023-07-13T00:12:35;99692.33;;;24.89;100.00
60611;BME280;46439;51.164;13.572;2023-07-13T00:15:09;99684.16;;;24.90;100.00
60611;BME280;46439;51.164;13.572;2023-07-13T00:17:40;99682.49;;;24.91;100.00
60611;BME280;46439;51.164;13.572;2023-07-13T00:20:10;99682.95;;;24.91;100.00
60611;BME280;46439;51.164;13.572;2023-07-13T00:22:40;99690.27;;;24.89;100.00
60611;BME280;46439;51.164;13.572;2023-07-13T00:25:11;99698.52;;;24.90;100.00
60611;BME280;46439;51.164;13.572;2023-07-13T00:27:41;99705.26;;;24.86;100.00
60611;BME280;46439;51.164;13.572;2023-07-13T00:30:11;99706.54;;;24.82;100.00
60611;BME280;46439;51.164;13.572;2023-07-13T00:32:40;99708.77;;;24.76;100.00
60611;BME280;46439;51.164;13.572;2023-07-13T00:35:10;99707.88;;;24.72;100.00
60611;BME280;46439;51.164;13.572;2023-07-13T00:37:38;99702.75;;;24.69;100.00
60611;BME280;46439;51.164;13.572;2023-07-13T00:40:09;99714.45;;;24.68;100.00
60611;BME280;46439;51.164;13.572;2023-07-13T00:42:37;99729.08;;;24.60;100.00
60611;BME280;46439;51.164;13.572;2023-07-13T00:47:50;99757.48;;;24.20;100.00
60611;BME280;46439;51.164;13.572;2023-07-13T00:50:21;99755.09;;;24.13;100.00
60611;BME280;46439;51.164;13.572;2023-07-13T00:52:49;99753.87;;;24.13;100.00
60611;BME280;46439;51.164;13.572;2023-07-13T00:55:19;99759.39;;;24.08;100.00
60611;BME280;46439;51.164;13.572;2023-07-13T00:57:49;99764.11;;;23.98;100.00
60611;BME280;46439;51.164;13.572;2023-07-13T01:00:18;99765.38;;;24.02;100.00
60611;BME280;46439;51.164;13.572;2023-07-13T01:02:49;99763.68;;;24.06;100.00
60611;BME280;46439;51.164;13.572;2023-07-13T01:05:20;99762.77;;;23.96;100.00
60611;BME280;46439;51.164;13.572;2023-07-13T01:07:51;99752.39;;;23.88;100.00
60611;BME280;46439;51.164;13.572;2023-07-13T01:10:22;99741.38;;;23.87;100.00
60611;BME280;46439;51.164;13.572;2023-07-13T01:12:51;99728.67;;;23.83;100.00
60611;BME280;46439;51.164;13.572;2023-07-13T01:15:41;99722.08;;;23.77;100.00
60611;BME280;46439;51.164;13.572;2023-07-13T01:18:12;99724.29;;;23.61;100.00
60611;BME280;46439;51.164;13.572;2023-07-13T01:23:15;99720.61;;;23.34;100.00
60611;BME280;46439;51.164;13.572;2023-07-13T01:25:44;99722.69;;;23.32;100.00
60611;BME280;46439;51.164;13.572;2023-07-13T01:28:12;99729.00;;;23.27;100.00
60611;BME280;46439;51.164;13.572;2023-07-13T01:30:41;99732.46;;;23.26;100.00
60611;BME280;46439;51.164;13.572;2023-07-13T01:33:15;99728.20;;;23.45;100.00
60611;BME280;46439;51.164;13.572;2023-07-13T01:35:45;99727.48;;;23.44;100.00
60611;BME280;46439;51.164;13.572;2023-07-13T01:38:15;99721.94;;;23.37;100.00
60611;BME280;46439;51.164;13.572;2023-07-13T01:40:45;99719.69;;;23.38;100.00
60611;BME280;46439;51.164;13.572;2023-07-13T01:43:14;99709.23;;;23.42;100.00
60611;BME280;46439;51.164;13.572;2023-07-13T01:45:43;99711.31;;;23.54;100.00
60611;BME280;46439;51.164;13.572;2023-07-13T01:48:12;99713.97;;;23.58;100.00
60611;BME280;46439;51.164;13.572;2023-07-13T01:50:42;99714.20;;;23.58;100.00
60611;BME280;46439;51.164;13.572;2023-07-13T01:53:10;99714.20;;;23.57;100.00
60611;BME280;46439;51.164;13.572;2023-07-13T01:55:41;99712.09;;;23.56;100.00
60611;BME280;46439;51.164;13.572;2023-07-13T01:58:09;99714.34;;;23.55;100.00
60611;BME280;46439;51.164;13.572;2023-07-13T02:00:38;99715.46;;;23.57;100.00
60611;BME280;46439;51.164;13.572;2023-07-13T02:03:06;99718.76;;;23.55;100.00
60611;BME280;46439;51.164;13.572;2023-07-13T02:05:35;99719.41;;;23.50;100.00
60611;BME280;46439;51.164;13.572;2023-07-13T02:08:05;99722.70;;;23.46;100.00
60611;BME280;46439;51.164;13.572;2023-07-13T02:10:33;99719.21;;;23.44;100.00
60611;BME280;46439;51.164;13.572;2023-07-13T02:13:08;99720.42;;;23.42;100.00
60611;BME280;46439;51.164;13.572;2023-07-13T02:15:39;99719.91;;;23.38;100.00
60611;BME280;46439;51.164;13.572;2023-07-13T02:18:11;99725.80;;;23.34;100.00
60611;BME280;46439;51.164;13.572;2023-07-13T02:20:40;99725.39;;;23.31;100.00
60611;BME280;46439;51.164;13.572;2023-07-13T02:23:09;99728.23;;;23.28;100.00
60611;BME280;46439;51.164;13.572;2023-07-13T02:25:37;99727.17;;;23.23;100.00
60611;BME280;46439;51.164;13.572;2023-07-13T02:28:06;99731.29;;;23.19;100.00
60611;BME280;46439;51.164;13.572;2023-07-13T02:30:35;99729.41;;;23.19;100.00
60611;BME280;46439;51.164;13.572;2023-07-13T02:33:04;99729.35;;;23.17;100.00
60611;BME280;46439;51.164;13.572;2023-07-13T02:35:33;99727.58;;;23.17;100.00
60611;BME280;46439;51.164;13.572;2023-07-13T02:38:01;99727.79;;;23.16;100.00
60611;BME280;46439;51.164;13.572;2023-07-13T02:40:29;99728.69;;;23.16;100.00
60611;BME280;46439;51.164;13.572;2023-07-13T02:43:01;99728.77;;;23.14;100.00
60611;BME280;46439;51.164;13.572;2023-07-13T02:45:29;99728.27;;;23.11;100.00
60611;BME280;46439;51.164;13.572;2023-07-13T02:47:58;99736.17;;;23.07;100.00
60611;BME280;46439;51.164;13.572;2023-07-13T02:50:27;99735.03;;;23.03;100.00
60611;BME280;46439;51.164;13.572;2023-07-13T02:52:55;99730.66;;;23.00;100.00
60611;BME280;46439;51.164;13.572;2023-07-13T02:55:24;99729.81;;;22.97;100.00
60611;BME280;46439;51.164;13.572;2023-07-13T02:57:52;99728.77;;;22.97;100.00
60611;BME280;46439;51.164;13.572;2023-07-13T03:00:22;99729.14;;;22.94;100.00
60611;BME280;46439;51.164;13.572;2023-07-13T03:02:51;99732.13;;;22.90;100.00
60611;BME280;46439;51.164;13.572;2023-07-13T03:05:21;99738.10;;;22.85;100.00
60611;BME280;46439;51.164;13.572;2023-07-13T03:07:49;99742.48;;;22.82;100.00
60611;BME280;46439;51.164;13.572;2023-07-13T03:10:18;99744.17;;;22.80;100.00
60611;BME280;46439;51.164;13.572;2023-07-13T03:12:47;99746.77;;;22.80;100.00
60611;BME280;46439;51.164;13.572;2023-07-13T03:15:15;99750.28;;;22.79;100.00
60611;BME280;46439;51.164;13.572;2023-07-13T03:17:44;99753.84;;;22.76;100.00
60611;BME280;46439;51.164;13.572;2023-07-13T03:20:13;99750.70;;;22.69;100.00
60611;BME280;46439;51.164;13.572;2023-07-13T03:22:41;99750.97;;;22.60;100.00
60611;BME280;46439;51.164;13.572;2023-07-13T03:25:10;99746.86;;;22.56;100.00
60611;BME280;46439;51.164;13.572;2023-07-13T03:27:39;99753.89;;;22.53;100.00
60611;BME280;46439;51.164;13.572;2023-07-13T03:30:09;99754.48;;;22.59;100.00
60611;BME280;46439;51.164;13.572;2023-07-13T03:32:38;99759.50;;;22.60;100.00
60611;BME280;46439;51.164;13.572;2023-07-13T03:35:07;99759.52;;;22.58;100.00
60611;BME280;46439;51.164;13.572;2023-07-13T03:37:37;99761.71;;;22.56;100.00
60611;BME280;46439;51.164;13.572;2023-07-13T03:40:12;99761.12;;;22.57;100.00
60611;BME280;46439;51.164;13.572;2023-07-13T03:42:41;99765.02;;;22.51;100.00
60611;BME280;46439;51.164;13.572;2023-07-13T03:45:10;99765.02;;;22.42;100.00
60611;BME280;46439;51.164;13.572;2023-07-13T03:47:38;99771.40;;;22.36;100.00
60611;BME280;46439;51.164;13.572;2023-07-13T03:50:09;99776.48;;;22.32;100.00
60611;BME280;46439;51.164;13.572;2023-07-13T03:52:37;99777.95;;;22.31;100.00
60611;BME280;46439;51.164;13.572;2023-07-13T03:55:07;99778.47;;;22.27;100.00
60611;BME280;46439;51.164;13.572;2023-07-13T03:57:36;99779.84;;;22.27;100.00
60611;BME280;46439;51.164;13.572;2023-07-13T04:00:06;99786.60;;;22.27;100.00
60611;BME280;46439;51.164;13.572;2023-07-13T04:02:34;99781.95;;;22.28;100.00
60611;BME280;46439;51.164;13.572;2023-07-13T04:05:05;99785.00;;;22.27;100.00
60611;BME280;46439;51.164;13.572;2023-07-13T04:07:34;99780.02;;;22.27;100.00
60611;BME280;46439;51.164;13.572;2023-07-13T04:10:03;99782.78;;;22.25;100.00
60611;BME280;46439;51.164;13.572;2023-07-13T04:12:32;99793.02;;;22.23;100.00
60611;BME280;46439;51.164;13.572;2023-07-13T04:15:01;99798.50;;;22.20;100.00
60611;BME280;46439;51.164;13.572;2023-07-13T04:17:29;99804.48;;;22.19;100.00
60611;BME280;46439;51.164;13.572;2023-07-13T04:19:57;99806.89;;;22.19;100.00
60611;BME280;46439;51.164;13.572;2023-07-13T04:22:26;99808.53;;;22.17;100.00
60611;BME280;46439;51.164;13.572;2023-07-13T04:24:54;99804.96;;;22.18;100.00
60611;BME280;46439;51.164;13.572;2023-07-13T04:27:22;99806.39;;;22.17;100.00
60611;BME280;46439;51.164;13.572;2023-07-13T04:29:51;99802.39;;;22.19;100.00
60611;BME280;46439;51.164;13.572;2023-07-13T04:32:20;99801.45;;;22.19;100.00
60611;BME280;46439;51.164;13.572;2023-07-13T04:34:48;99805.72;;;22.22;100.00
60611;BME280;46439;51.164;13.572;2023-07-13T04:37:21;99805.51;;;22.23;100.00
60611;BME280;46439;51.164;13.572;2023-07-13T04:39:50;99801.16;;;22.26;100.00
60611;BME280;46439;51.164;13.572;2023-07-13T04:42:18;99796.22;;;22.31;100.00
60611;BME280;46439;51.164;13.572;2023-07-13T04:44:50;99796.96;;;22.34;100.00
60611;BME280;46439;51.164;13.572;2023-07-13T04:47:19;99803.19;;;22.35;100.00
60611;BME280;46439;51.164;13.572;2023-07-13T04:49:48;99802.84;;;22.21;100.00
60611;BME280;46439;51.164;13.572;2023-07-13T04:52:16;99802.52;;;22.30;100.00
60611;BME280;46439;51.164;13.572;2023-07-13T04:54:45;99796.51;;;22.33;100.00
60611;BME280;46439;51.164;13.572;2023-07-13T04:57:13;99794.46;;;22.44;100.00
60611;BME280;46439;51.164;13.572;2023-07-13T04:59:42;99798.55;;;22.45;100.00
60611;BME280;46439;51.164;13.572;2023-07-13T05:02:10;99801.90;;;22.46;100.00
60611;BME280;46439;51.164;13.572;2023-07-13T05:04:39;99805.90;;;22.38;100.00
60611;BME280;46439;51.164;13.572;2023-07-13T05:07:07;99801.63;;;22.45;100.00
60611;BME280;46439;51.164;13.572;2023-07-13T05:09:36;99803.31;;;22.43;100.00
60611;BME280;46439;51.164;13.572;2023-07-13T05:12:07;99801.09;;;22.36;100.00
60611;BME280;46439;51.164;13.572;2023-07-13T05:14:35;99805.30;;;22.39;100.00
60611;BME280;46439;51.164;13.572;2023-07-13T05:17:05;99802.44;;;22.38;100.00
60611;BME280;46439;51.164;13.572;2023-07-13T05:19:34;99799.13;;;22.36;100.00
60611;BME280;46439;51.164;13.572;2023-07-13T05:22:02;99803.67;;;22.35;100.00
60611;BME280;46439;51.164;13.572;2023-07-13T05:24:32;99804.67;;;22.41;100.00
60611;BME280;46439;51.164;13.572;2023-07-13T05:27:00;99810.16;;;22.54;100.00
60611;BME280;46439;51.164;13.572;2023-07-13T05:29:29;99809.65;;;22.57;100.00
60611;BME280;46439;51.164;13.572;2023-07-13T05:31:58;99805.08;;;22.63;100.00
60611;BME280;46439;51.164;13.572;2023-07-13T05:34:26;99804.13;;;22.68;100.00
60611;BME280;46439;51.164;13.572;2023-07-13T05:36:55;99800.20;;;22.73;100.00
60611;BME280;46439;51.164;13.572;2023-07-13T05:39:23;99804.85;;;22.75;100.00
60611;BME280;46439;51.164;13.572;2023-07-13T05:41:52;99808.41;;;22.80;100.00
60611;BME280;46439;51.164;13.572;2023-07-13T05:44:21;99813.02;;;22.83;100.00
60611;BME280;46439;51.164;13.572;2023-07-13T05:46:49;99818.49;;;22.82;100.00
60611;BME280;46439;51.164;13.572;2023-07-13T05:49:18;99820.36;;;22.74;100.00
60611;BME280;46439;51.164;13.572;2023-07-13T05:51:46;99819.85;;;22.88;100.00
60611;BME280;46439;51.164;13.572;2023-07-13T05:54:15;99822.05;;;22.93;100.00
60611;BME280;46439;51.164;13.572;2023-07-13T05:56:43;99815.55;;;22.93;100.00
60611;BME280;46439;51.164;13.572;2023-07-13T05:59:12;99816.16;;;22.93;100.00
60611;BME280;46439;51.164;13.572;2023-07-13T06:01:40;99817.27;;;22.94;100.00
60611;BME280;46439;51.164;13.572;2023-07-13T06:04:09;99817.55;;;22.94;100.00
60611;BME280;46439;51.164;13.572;2023-07-13T06:06:37;99818.37;;;23.01;100.00
60611;BME280;46439;51.164;13.572;2023-07-13T06:09:06;99817.94;;;23.07;100.00
60611;BME280;46439;51.164;13.572;2023-07-13T06:11:34;99819.35;;;23.12;100.00
60611;BME280;46439;51.164;13.572;2023-07-13T06:14:03;99818.53;;;23.21;100.00
60611;BME280;46439;51.164;13.572;2023-07-13T06:16:32;99819.31;;;23.31;100.00
60611;BME280;46439;51.164;13.572;2023-07-13T06:19:00;99827.77;;;23.35;100.00
60611;BME280;46439;51.164;13.572;2023-07-13T06:21:29;99826.14;;;23.38;100.00
60611;BME280;46439;51.164;13.572;2023-07-13T06:23:57;99829.03;;;23.46;100.00
60611;BME280;46439;51.164;13.572;2023-07-13T06:26:26;99826.86;;;23.51;100.00
60611;BME280;46439;51.164;13.572;2023-07-13T06:28:54;99831.30;;;23.48;100.00
60611;BME280;46439;51.164;13.572;2023-07-13T06:31:23;99830.05;;;23.41;100.00
60611;BME280;46439;51.164;13.572;2023-07-13T06:33:51;99832.77;;;23.53;100.00
60611;BME280;46439;51.164;13.572;2023-07-13T06:36:20;99827.52;;;23.62;100.00
60611;BME280;46439;51.164;13.572;2023-07-13T06:38:49;99828.04;;;23.69;100.00
60611;BME280;46439;51.164;13.572;2023-07-13T06:41:17;99825.63;;;23.71;100.00
60611;BME280;46439;51.164;13.572;2023-07-13T06:43:46;99825.32;;;23.65;100.00
60611;BME280;46439;51.164;13.572;2023-07-13T06:46:14;99830.73;;;23.69;100.00
60611;BME280;46439;51.164;13.572;2023-07-13T06:48:42;99830.56;;;23.77;100.00
60611;BME280;46439;51.164;13.572;2023-07-13T06:51:11;99833.93;;;23.86;100.00
60611;BME280;46439;51.164;13.572;2023-07-13T06:53:39;99834.83;;;23.92;100.00
60611;BME280;46439;51.164;13.572;2023-07-13T06:56:08;99838.46;;;24.02;100.00
60611;BME280;46439;51.164;13.572;2023-07-13T06:58:36;99841.13;;;24.09;100.00
60611;BME280;46439;51.164;13.572;2023-07-13T07:01:05;99841.20;;;24.16;100.00
60611;BME280;46439;51.164;13.572;2023-07-13T07:03:34;99840.95;;;24.34;100.00
60611;BME280;46439;51.164;13.572;2023-07-13T07:06:06;99846.55;;;24.43;100.00
60611;BME280;46439;51.164;13.572;2023-07-13T07:08:38;99843.80;;;24.46;100.00
60611;BME280;46439;51.164;13.572;2023-07-13T07:11:08;99848.55;;;24.49;100.00
60611;BME280;46439;51.164;13.572;2023-07-13T07:13:36;99848.98;;;24.53;100.00
60611;BME280;46439;51.164;13.572;2023-07-13T07:16:05;99852.01;;;24.56;100.00
60611;BME280;46439;51.164;13.572;2023-07-13T07:18:34;99853.79;;;24.67;100.00
60611;BME280;46439;51.164;13.572;2023-07-13T07:21:02;99856.05;;;24.72;100.00
60611;BME280;46439;51.164;13.572;2023-07-13T07:23:31;99856.84;;;24.79;100.00
60611;BME280;46439;51.164;13.572;2023-07-13T07:26:00;99858.66;;;24.81;100.00
60611;BME280;46439;51.164;13.572;2023-07-13T07:28:28;99863.67;;;24.85;100.00
60611;BME280;46439;51.164;13.572;2023-07-13T07:30:58;99863.47;;;24.90;100.00
60611;BME280;46439;51.164;13.572;2023-07-13T07:33:26;99866.27;;;24.91;100.00
60611;BME280;46439;51.164;13.572;2023-07-13T07:35:55;99865.17;;;24.90;100.00
60611;BME280;46439;51.164;13.572;2023-07-13T07:38:23;99864.69;;;24.95;100.00
60611;BME280;46439;51.164;13.572;2023-07-13T07:40:52;99865.50;;;25.01;100.00
60611;BME280;46439;51.164;13.572;2023-07-13T07:43:21;99862.30;;;25.05;100.00
60611;BME280;46439;51.164;13.572;2023-07-13T07:45:49;99868.81;;;25.09;100.00
60611;BME280;46439;51.164;13.572;2023-07-13T07:48:18;99868.26;;;25.12;100.00
60611;BME280;46439;51.164;13.572;2023-07-13T07:50:47;99870.14;;;25.16;100.00
60611;BME280;46439;51.164;13.572;2023-07-13T07:53:15;99871.47;;;25.24;100.00
60611;BME280;46439;51.164;13.572;2023-07-13T07:55:43;99868.92;;;25.31;100.00
60611;BME280;46439;51.164;13.572;2023-07-13T07:58:13;99864.23;;;25.37;100.00
60611;BME280;46439;51.164;13.572;2023-07-13T08:00:41;99858.63;;;25.43;100.00
60611;BME280;46439;51.164;13.572;2023-07-13T08:03:10;99859.05;;;25.50;100.00
60611;BME280;46439;51.164;13.572;2023-07-13T08:05:39;99857.11;;;25.59;100.00
60611;BME280;46439;51.164;13.572;2023-07-13T08:08:07;99854.41;;;25.68;100.00
60611;BME280;46439;51.164;13.572;2023-07-13T08:10:38;99857.88;;;25.73;100.00
60611;BME280;46439;51.164;13.572;2023-07-13T08:13:06;99854.59;;;25.78;100.00
60611;BME280;46439;51.164;13.572;2023-07-13T08:15:34;99855.08;;;25.82;100.00
60611;BME280;46439;51.164;13.572;2023-07-13T08:18:03;99850.63;;;25.89;100.00
60611;BME280;46439;51.164;13.572;2023-07-13T08:20:31;99859.27;;;26.01;100.00
60611;BME280;46439;51.164;13.572;2023-07-13T08:23:00;99858.11;;;26.14;100.00
60611;BME280;46439;51.164;13.572;2023-07-13T08:25:28;99857.34;;;26.25;100.00
60611;BME280;46439;51.164;13.572;2023-07-13T08:27:57;99858.20;;;26.38;100.00
60611;BME280;46439;51.164;13.572;2023-07-13T08:30:25;99863.09;;;26.51;100.00
60611;BME280;46439;51.164;13.572;2023-07-13T08:32:54;99862.08;;;26.55;100.00
60611;BME280;46439;51.164;13.572;2023-07-13T08:35:23;99859.16;;;26.65;100.00
60611;BME280;46439;51.164;13.572;2023-07-13T08:37:53;99859.70;;;26.74;100.00
60611;BME280;46439;51.164;13.572;2023-07-13T08:40:25;99855.23;;;26.80;100.00
60611;BME280;46439;51.164;13.572;2023-07-13T08:42:55;99858.49;;;26.84;100.00
60611;BME280;46439;51.164;13.572;2023-07-13T08:45:28;99860.31;;;26.87;100.00
60611;BME280;46439;51.164;13.572;2023-07-13T08:48:01;99858.60;;;26.93;100.00
60611;BME280;46439;51.164;13.572;2023-07-13T08:50:52;99856.96;;;26.91;100.00
60611;BME280;46439;51.164;13.572;2023-07-13T08:53:26;99864.20;;;26.98;100.00
60611;BME280;46439;51.164;13.572;2023-07-13T08:56:00;99866.50;;;27.01;100.00
60611;BME280;46439;51.164;13.572;2023-07-13T08:58:30;99860.52;;;27.07;100.00
60611;BME280;46439;51.164;13.572;2023-07-13T09:01:05;99865.73;;;27.09;100.00
60611;BME280;46439;51.164;13.572;2023-07-13T09:03:42;99870.29;;;27.00;100.00
60611;BME280;46439;51.164;13.572;2023-07-13T09:06:16;99869.84;;;26.87;100.00
60611;BME280;46439;51.164;13.572;2023-07-13T09:08:52;99874.48;;;26.81;100.00
60611;BME280;46439;51.164;13.572;2023-07-13T09:11:34;99873.08;;;26.83;100.00
60611;BME280;46439;51.164;13.572;2023-07-13T09:17:04;99870.65;;;27.03;100.00
60611;BME280;46439;51.164;13.572;2023-07-13T09:19:34;99872.61;;;27.07;100.00
60611;BME280;46439;51.164;13.572;2023-07-13T09:22:09;99878.06;;;27.05;100.00
60611;BME280;46439;51.164;13.572;2023-07-13T09:24:41;99883.12;;;26.97;100.00
60611;BME280;46439;51.164;13.572;2023-07-13T09:27:19;99888.62;;;26.94;100.00
60611;BME280;46439;51.164;13.572;2023-07-13T09:29:54;99890.10;;;26.97;100.00
60611;BME280;46439;51.164;13.572;2023-07-13T09:32:26;99885.05;;;27.09;100.00
60611;BME280;46439;51.164;13.572;2023-07-13T09:34:55;99888.68;;;27.19;100.00
60611;BME280;46439;51.164;13.572;2023-07-13T09:37:27;99888.58;;;27.27;100.00
60611;BME280;46439;51.164;13.572;2023-07-13T09:39:57;99890.58;;;27.33;100.00
60611;BME280;46439;51.164;13.572;2023-07-13T09:42:26;99892.14;;;27.37;100.00
60611;BME280;46439;51.164;13.572;2023-07-13T09:44:58;99890.79;;;27.45;100.00
60611;BME280;46439;51.164;13.572;2023-07-13T09:47:28;99886.29;;;27.56;100.00
60611;BME280;46439;51.164;13.572;2023-07-13T09:50:02;99890.02;;;27.62;100.00
60611;BME280;46439;51.164;13.572;2023-07-13T09:52:42;99887.63;;;27.71;100.00
60611;BME280;46439;51.164;13.572;2023-07-13T09:55:26;99889.11;;;27.77;100.00
60611;BME280;46439;51.164;13.572;2023-07-13T09:57:54;99888.59;;;27.84;100.00
60611;BME280;46439;51.164;13.572;2023-07-13T10:00:25;99889.93;;;27.88;100.00
60611;BME280;46439;51.164;13.572;2023-07-13T10:03:05;99891.70;;;27.99;100.00
60611;BME280;46439;51.164;13.572;2023-07-13T10:05:42;99886.85;;;28.10;100.00
60611;BME280;46439;51.164;13.572;2023-07-13T10:08:23;99885.82;;;28.17;100.00
60611;BME280;46439;51.164;13.572;2023-07-13T10:10:54;99892.64;;;28.18;100.00
60611;BME280;46439;51.164;13.572;2023-07-13T10:13:31;99895.17;;;28.24;100.00
60611;BME280;46439;51.164;13.572;2023-07-13T10:16:01;99887.31;;;28.33;100.00
60611;BME280;46439;51.164;13.572;2023-07-13T10:18:31;99891.69;;;28.43;100.00
60611;BME280;46439;51.164;13.572;2023-07-13T10:21:13;99881.91;;;28.43;100.00
60611;BME280;46439;51.164;13.572;2023-07-13T10:23:43;99881.66;;;28.41;100.00
60611;BME280;46439;51.164;13.572;2023-07-13T10:26:18;99887.33;;;28.45;100.00
60611;BME280;46439;51.164;13.572;2023-07-13T10:28:51;99895.34;;;28.40;100.00
60611;BME280;46439;51.164;13.572;2023-07-13T10:31:21;99895.52;;;28.35;100.00
60611;BME280;46439;51.164;13.572;2023-07-13T10:33:51;99895.16;;;28.32;100.00
60611;BME280;46439;51.164;13.572;2023-07-13T10:36:32;99896.38;;;28.34;100.00
60611;BME280;46439;51.164;13.572;2023-07-13T10:39:03;99898.70;;;28.34;100.00
60611;BME280;46439;51.164;13.572;2023-07-13T10:41:36;99904.39;;;28.31;100.00
60611;BME280;46439;51.164;13.572;2023-07-13T10:44:09;99896.38;;;28.29;100.00
60611;BME280;46439;51.164;13.572;2023-07-13T10:46:44;99895.83;;;28.32;100.00
60611;BME280;46439;51.164;13.572;2023-07-13T10:49:13;99897.82;;;28.33;100.00
60611;BME280;46439;51.164;13.572;2023-07-13T10:51:42;99896.52;;;28.30;100.00
60611;BME280;46439;51.164;13.572;2023-07-13T10:54:20;99901.20;;;28.32;100.00
60611;BME280;46439;51.164;13.572;2023-07-13T10:57:07;99895.66;;;28.41;100.00
60611;BME280;46439;51.164;13.572;2023-07-13T10:59:37;99898.35;;;28.50;100.00
60611;BME280;46439;51.164;13.572;2023-07-13T11:02:15;99892.02;;;28.51;100.00
60611;BME280;46439;51.164;13.572;2023-07-13T11:04:49;99896.70;;;28.58;100.00
60611;BME280;46439;51.164;13.572;2023-07-13T11:07:21;99892.58;;;28.71;100.00
60611;BME280;46439;51.164;13.572;2023-07-13T11:09:53;99890.89;;;28.76;100.00
60611;BME280;46439;51.164;13.572;2023-07-13T11:12:50;99891.51;;;28.82;100.00
60611;BME280;46439;51.164;13.572;2023-07-13T11:15:39;99899.67;;;28.82;100.00
60611;BME280;46439;51.164;13.572;2023-07-13T11:18:22;99896.40;;;28.75;100.00
60611;BME280;46439;51.164;13.572;2023-07-13T11:20:52;99904.23;;;28.65;100.00
60611;BME280;46439;51.164;13.572;2023-07-13T11:23:43;99904.29;;;28.51;100.00
60611;BME280;46439;51.164;13.572;2023-07-13T11:26:41;99906.19;;;28.45;100.00
60611;BME280;46439;51.164;13.572;2023-07-13T11:29:27;99905.22;;;28.39;100.00
60611;BME280;46439;51.164;13.572;2023-07-13T11:32:02;99901.11;;;28.40;100.00
60611;BME280;46439;51.164;13.572;2023-07-13T11:34:50;99894.58;;;28.42;100.00
60611;BME280;46439;51.164;13.572;2023-07-13T11:37:20;99889.02;;;28.55;100.00
60611;BME280;46439;51.164;13.572;2023-07-13T11:39:52;99889.30;;;28.66;100.00
60611;BME280;46439;51.164;13.572;2023-07-13T11:42:22;99890.00;;;28.72;100.00
60611;BME280;46439;51.164;13.572;2023-07-13T11:44:52;99889.15;;;28.78;100.00
60611;BME280;46439;51.164;13.572;2023-07-13T11:47:20;99889.71;;;28.93;100.00
60611;BME280;46439;51.164;13.572;2023-07-13T11:49:53;99890.75;;;29.01;100.00
60611;BME280;46439;51.164;13.572;2023-07-13T11:52:28;99889.54;;;29.08;100.00
60611;BME280;46439;51.164;13.572;2023-07-13T11:55:03;99885.31;;;29.16;100.00
60611;BME280;46439;51.164;13.572;2023-07-13T11:57:41;99889.34;;;29.25;100.00
60611;BME280;46439;51.164;13.572;2023-07-13T12:00:15;99881.79;;;29.33;100.00
60611;BME280;46439;51.164;13.572;2023-07-13T12:02:47;99878.40;;;29.39;100.00
60611;BME280;46439;51.164;13.572;2023-07-13T12:05:18;99880.92;;;29.41;100.00
60611;BME280;46439;51.164;13.572;2023-07-13T12:07:49;99881.64;;;29.41;100.00
60611;BME280;46439;51.164;13.572;2023-07-13T12:10:23;99876.66;;;29.43;100.00
60611;BME280;46439;51.164;13.572;2023-07-13T12:12:53;99870.25;;;29.49;100.00
60611;BME280;46439;51.164;13.572;2023-07-13T12:15:27;99866.34;;;29.59;100.00
60611;BME280;46439;51.164;13.572;2023-07-13T12:17:57;99870.81;;;29.66;100.00
60611;BME280;46439;51.164;13.572;2023-07-13T12:20:27;99868.52;;;29.76;100.00
60611;BME280;46439;51.164;13.572;2023-07-13T12:22:58;99859.79;;;29.87;100.00
60611;BME280;46439;51.164;13.572;2023-07-13T12:25:27;99854.95;;;29.98;100.00
60611;BME280;46439;51.164;13.572;2023-07-13T12:27:56;99857.46;;;30.00;100.00
60611;BME280;46439;51.164;13.572;2023-07-13T12:30:29;99859.89;;;29.96;100.00
60611;BME280;46439;51.164;13.572;2023-07-13T12:33:01;99861.11;;;29.83;100.00
60611;BME280;46439;51.164;13.572;2023-07-13T12:35:43;99868.01;;;29.70;100.00
60611;BME280;46439;51.164;13.572;2023-07-13T12:38:13;99868.83;;;29.62;100.00
60611;BME280;46439;51.164;13.572;2023-07-13T12:40:42;99869.36;;;29.55;100.00
60611;BME280;46439;51.164;13.572;2023-07-13T12:43:14;99865.04;;;29.63;100.00
60611;BME280;46439;51.164;13.572;2023-07-13T12:45:57;99864.80;;;29.74;100.00
60611;BME280;46439;51.164;13.572;2023-07-13T12:48:26;99857.02;;;29.82;100.00
60611;BME280;46439;51.164;13.572;2023-07-13T12:50:56;99860.02;;;29.96;100.00
60611;BME280;46439;51.164;13.572;2023-07-13T12:53:31;99865.61;;;30.00;100.00
60611;BME280;46439;51.164;13.572;2023-07-13T12:56:03;99860.66;;;30.01;100.00
60611;BME280;46439;51.164;13.572;2023-07-13T12:58:36;99863.15;;;30.04;100.00
60611;BME280;46439;51.164;13.572;2023-07-13T13:01:05;99860.48;;;30.01;100.00
60611;BME280;46439;51.164;13.572;2023-07-13T13:03:37;99862.64;;;29.97;100.00
60611;BME280;46439;51.164;13.572;2023-07-13T13:06:19;99867.06;;;29.99;100.00
60611;BME280;46439;51.164;13.572;2023-07-13T13:08:50;99873.77;;;30.11;100.00